createdAt,value
2022-11-24T00:00:45.119Z,184.70
2022-11-24T00:03:28.585Z,192.77
2022-11-24T00:06:05.645Z,197.75
2022-11-24T00:08:39.175Z,188.95
2022-11-24T00:11:14.032Z,189.95
2022-11-24T00:13:46.221Z,188.60
2022-11-24T00:16:23.092Z,178.13
2022-11-24T00:18:56.940Z,177.55
2022-11-24T00:21:33.577Z,181.57
2022-11-24T00:24:05.845Z,180.57
2022-11-24T00:26:40.589Z,184.20
2022-11-24T00:29:14.540Z,185.70
2022-11-24T00:31:49.324Z,188.52
2022-11-24T00:34:21.050Z,188.48
2022-11-24T00:36:55.189Z,185.27
2022-11-24T00:39:29.773Z,187.45
2022-11-24T00:42:02.537Z,182.38
2022-11-24T00:44:34.552Z,186.82
2022-11-24T00:47:09.732Z,184.90
2022-11-24T00:49:42.969Z,185.80
2022-11-24T00:52:15.136Z,182.02
2022-11-24T00:54:46.801Z,188.13
2022-11-24T00:57:19.028Z,190.32
2022-11-24T00:59:50.981Z,195.90
2022-11-24T01:02:25.601Z,180.35
2022-11-24T01:04:57.421Z,186.15
2022-11-24T01:07:29.630Z,182.90
2022-11-24T01:10:03.420Z,176.20
2022-11-24T01:12:35.341Z,177.45
2022-11-24T01:15:07.521Z,187.20
2022-11-24T01:17:44.335Z,186.02
2022-11-24T01:20:16.058Z,174.75
2022-11-24T01:22:51.351Z,178.52
2022-11-24T01:25:25.422Z,183.20
2022-11-24T01:27:59.337Z,182.65
2022-11-24T01:30:31.073Z,214.63
2022-11-24T01:33:06.676Z,186.60
2022-11-24T01:35:39.650Z,180.50
2022-11-24T01:38:13.995Z,182.82
2022-11-24T01:40:45.648Z,213.95
2022-11-24T01:43:21.281Z,198.80
2022-11-24T01:45:53.164Z,197.00
2022-11-24T01:48:31.056Z,238.68
2022-11-24T01:51:11.522Z,212.57
2022-11-24T01:53:47.716Z,201.20
2022-11-24T01:56:19.695Z,216.63
2022-11-24T01:58:54.686Z,190.85
2022-11-24T02:01:26.701Z,205.23
2022-11-24T02:04:04.847Z,205.57
2022-11-24T02:06:39.133Z,220.38
2022-11-24T02:09:17.008Z,201.23
2022-11-24T02:11:50.441Z,208.88
2022-11-24T02:14:25.515Z,213.65
2022-11-24T02:16:57.586Z,199.77
2022-11-24T02:19:44.856Z,196.80
2022-11-24T02:22:24.106Z,189.68
2022-11-24T02:25:02.236Z,178.98
2022-11-24T02:27:37.013Z,186.00
2022-11-24T02:30:10.145Z,184.23
2022-11-24T02:32:44.726Z,192.02
2022-11-24T02:35:17.366Z,198.18
2022-11-24T02:37:49.206Z,195.93
2022-11-24T02:40:25.924Z,182.25
2022-11-24T02:43:05.296Z,177.93
2022-11-24T02:45:37.289Z,214.98
2022-11-24T02:48:10.090Z,193.63
2022-11-24T02:51:01.812Z,198.27
2022-11-24T02:53:34.846Z,171.85
2022-11-24T02:56:07.075Z,187.35
2022-11-24T02:58:41.536Z,169.55
2022-11-24T03:01:13.728Z,190.50
2022-11-24T03:03:46.219Z,206.85
2022-11-24T03:06:18.628Z,203.75
2022-11-24T03:08:50.394Z,188.52
2022-11-24T03:11:24.813Z,193.38
2022-11-24T03:14:01.168Z,207.70
2022-11-24T03:16:33.268Z,197.25
2022-11-24T03:19:05.392Z,179.93
2022-11-24T03:21:40.638Z,196.65
2022-11-24T03:24:13.037Z,166.65
2022-11-24T03:26:45.124Z,196.18
2022-11-24T03:29:20.609Z,177.60
2022-11-24T03:31:52.369Z,176.38
2022-11-24T03:34:24.073Z,173.40
2022-11-24T03:36:56.116Z,210.25
2022-11-24T03:39:27.713Z,181.77
2022-11-24T03:41:59.634Z,190.55
2022-11-24T03:44:34.069Z,194.48
2022-11-24T03:47:21.153Z,188.25
2022-11-24T03:49:53.093Z,191.40
2022-11-24T03:52:26.963Z,202.05
2022-11-24T03:54:58.602Z,172.75
2022-11-24T03:57:30.484Z,181.32
2022-11-24T04:00:06.858Z,193.23
2022-11-24T04:02:39.035Z,183.13
2022-11-24T04:05:11.584Z,180.98
2022-11-24T04:07:43.875Z,165.25
2022-11-24T04:10:17.345Z,165.52
2022-11-24T04:12:48.422Z,160.57
2022-11-24T04:15:23.130Z,160.63
2022-11-24T04:17:59.876Z,183.85
2022-11-24T04:20:34.347Z,172.82
2022-11-24T04:23:09.268Z,170.10
2022-11-24T04:25:41.949Z,186.77
2022-11-24T04:28:14.604Z,169.98
2022-11-24T04:30:52.356Z,166.55
2022-11-24T04:33:24.756Z,156.73
2022-11-24T04:35:57.382Z,166.45
2022-11-24T04:39:19.416Z,163.98
2022-11-24T04:41:25.680Z,162.32
2022-11-24T04:43:58.216Z,152.88
2022-11-24T04:46:32.766Z,172.75
2022-11-24T04:49:05.827Z,173.95
2022-11-24T04:51:37.774Z,160.02
2022-11-24T04:54:11.160Z,157.88
2022-11-24T04:56:44.273Z,145.70
2022-11-24T04:59:17.775Z,156.65
2022-11-24T05:01:52.474Z,160.00
2022-11-24T05:04:25.562Z,159.75
2022-11-24T05:06:57.647Z,171.68
2022-11-24T05:09:54.948Z,165.15
2022-11-24T05:12:24.820Z,159.63
2022-11-24T05:14:56.697Z,151.60
2022-11-24T05:17:34.292Z,166.35
2022-11-24T05:20:09.082Z,168.25
2022-11-24T05:22:40.536Z,156.27
2022-11-24T05:25:13.230Z,151.07
2022-11-24T05:31:08.927Z,138.85
2022-11-24T05:33:44.343Z,130.13
2022-11-24T05:36:36.475Z,121.90
2022-11-24T05:39:10.074Z,126.97
2022-11-24T05:41:43.197Z,113.90
2022-11-24T05:44:16.595Z,127.32
2022-11-24T05:46:48.487Z,121.80
2022-11-24T05:49:50.465Z,119.60
2022-11-24T05:52:22.575Z,115.82
2022-11-24T05:54:54.836Z,117.10
2022-11-24T05:57:26.626Z,116.45
2022-11-24T05:59:59.146Z,111.47
2022-11-24T06:02:31.155Z,114.20
2022-11-24T06:05:06.624Z,113.25
2022-11-24T06:07:38.600Z,116.18
2022-11-24T06:10:10.979Z,127.47
2022-11-24T06:12:42.771Z,127.43
2022-11-24T06:15:15.001Z,131.10
2022-11-24T06:17:46.808Z,119.32
2022-11-24T06:20:27.020Z,130.02
2022-11-24T06:23:01.557Z,133.75
2022-11-24T06:25:34.135Z,160.23
2022-11-24T06:28:13.576Z,116.47
2022-11-24T06:30:49.474Z,115.55
2022-11-24T06:33:21.140Z,125.40
2022-11-24T06:35:55.575Z,123.40
2022-11-24T06:38:26.956Z,115.68
2022-11-24T06:41:03.343Z,125.10
2022-11-24T06:43:35.193Z,107.15
2022-11-24T06:46:07.962Z,131.40
2022-11-24T06:48:39.693Z,121.22
2022-11-24T06:51:16.113Z,122.57
2022-11-24T06:53:48.990Z,121.57
2022-11-24T06:56:23.348Z,117.45
2022-11-24T06:58:56.232Z,117.43
2022-11-24T07:01:29.876Z,116.22
2022-11-24T07:04:03.449Z,107.18
2022-11-24T07:06:40.247Z,112.82
2022-11-24T07:09:12.522Z,111.78
2022-11-24T07:11:47.529Z,104.78
2022-11-24T07:14:19.360Z,101.18
2022-11-24T07:16:53.756Z,101.85
2022-11-24T07:19:26.037Z,101.03
2022-11-24T07:22:00.746Z,103.50
2022-11-24T07:24:36.511Z,92.25
2022-11-24T07:27:10.088Z,95.57
2022-11-24T07:29:41.724Z,95.18
2022-11-24T07:32:15.782Z,97.63
2022-11-24T07:34:48.744Z,99.45
2022-11-24T07:37:31.489Z,97.70
2022-11-24T07:40:05.049Z,84.68
2022-11-24T07:42:37.422Z,90.03
2022-11-24T07:45:11.953Z,88.75
2022-11-24T07:47:44.946Z,92.22
2022-11-24T07:50:17.023Z,88.88
2022-11-24T07:55:38.239Z,90.90
2022-11-24T07:58:11.016Z,88.22
2022-11-24T08:00:43.845Z,93.32
2022-11-24T08:03:16.776Z,91.13
2022-11-24T08:06:23.113Z,85.25
2022-11-24T08:08:53.880Z,82.82
2022-11-24T08:11:26.725Z,84.70
2022-11-24T08:14:00.387Z,91.47
2022-11-24T08:16:33.126Z,84.82
2022-11-24T08:19:05.897Z,84.88
2022-11-24T08:21:38.236Z,92.53
2022-11-24T08:24:15.636Z,87.93
2022-11-24T08:26:48.297Z,83.70
2022-11-24T08:29:21.513Z,91.60
2022-11-24T08:31:53.395Z,88.88
2022-11-24T08:34:26.155Z,87.72
2022-11-24T08:36:58.131Z,84.75
2022-11-24T08:39:32.969Z,90.55
2022-11-24T08:42:04.943Z,90.25
2022-11-24T08:44:36.859Z,82.90
2022-11-24T08:47:08.800Z,82.57
2022-11-24T08:49:40.501Z,84.55
2022-11-24T08:52:15.606Z,84.22
2022-11-24T08:54:50.616Z,78.53
2022-11-24T08:57:22.112Z,75.20
2022-11-24T08:59:54.288Z,79.90
2022-11-24T09:02:25.491Z,80.90
2022-11-24T09:04:57.353Z,76.22
2022-11-24T09:07:28.942Z,86.93
2022-11-24T09:10:03.443Z,87.30
2022-11-24T09:12:34.807Z,82.93
2022-11-24T09:15:07.551Z,80.88
2022-11-24T09:17:39.768Z,76.53
2022-11-24T09:20:12.027Z,82.47
2022-11-24T09:22:44.785Z,81.63
2022-11-24T09:25:19.315Z,80.72
2022-11-24T09:27:50.512Z,77.68
2022-11-24T09:30:25.182Z,76.45
2022-11-24T09:32:58.708Z,83.13
2022-11-24T09:35:30.811Z,80.85
2022-11-24T09:38:02.439Z,78.40
2022-11-24T09:40:36.838Z,84.60
2022-11-24T09:43:15.810Z,86.15
2022-11-24T09:46:05.600Z,76.90
2022-11-24T09:48:41.735Z,76.82
2022-11-24T09:51:16.739Z,74.63
2022-11-24T09:53:51.606Z,68.28
2022-11-24T09:56:28.603Z,75.25
2022-11-24T09:59:04.894Z,75.78
2022-11-24T10:01:40.375Z,76.10
2022-11-24T10:04:21.616Z,78.45
2022-11-24T10:07:01.970Z,79.13
2022-11-24T10:09:56.355Z,72.45
2022-11-24T10:12:44.198Z,71.72
2022-11-24T10:15:32.456Z,74.93
2022-11-24T10:18:49.816Z,68.50
2022-11-24T10:21:44.325Z,64.85
2022-11-24T10:24:43.431Z,69.07
2022-11-24T10:27:20.035Z,61.03
2022-11-24T10:29:56.377Z,70.32
2022-11-24T10:32:31.066Z,72.45
2022-11-24T10:35:15.886Z,68.95
2022-11-24T10:37:55.359Z,72.43
2022-11-24T10:43:32.094Z,77.72
2022-11-24T10:46:15.191Z,69.97
2022-11-24T10:48:51.634Z,71.13
2022-11-24T10:51:51.747Z,72.68
2022-11-24T10:54:26.691Z,70.15
2022-11-24T10:56:59.493Z,72.93
2022-11-24T10:59:38.841Z,70.57
2022-11-24T11:02:35.896Z,76.63
2022-11-24T11:05:31.607Z,70.22
2022-11-24T11:08:23.136Z,72.93
2022-11-24T11:11:23.001Z,65.50
2022-11-24T11:14:03.806Z,70.82
2022-11-24T11:16:41.054Z,70.07
2022-11-24T11:19:48.998Z,65.53
2022-11-24T11:22:28.218Z,69.75
2022-11-24T11:25:21.968Z,67.07
2022-11-24T11:27:54.749Z,70.60
2022-11-24T11:36:21.923Z,64.43
2022-11-24T11:38:54.360Z,71.40
2022-11-24T11:41:34.431Z,62.42
2022-11-24T11:44:24.835Z,66.78
2022-11-24T11:47:01.735Z,66.85
2022-11-24T11:49:46.042Z,63.42
2022-11-24T11:52:54.320Z,61.60
2022-11-24T11:55:37.171Z,65.05
2022-11-24T11:58:39.071Z,61.10
2022-11-24T12:01:26.513Z,59.33
2022-11-24T12:04:17.319Z,59.08
2022-11-24T12:07:14.332Z,64.95
2022-11-24T12:10:02.038Z,64.15
2022-11-24T12:13:05.006Z,67.82
2022-11-24T12:15:43.922Z,60.35
2022-11-24T12:18:56.350Z,64.65
2022-11-24T12:21:29.325Z,58.15
2022-11-24T12:24:14.250Z,59.53
2022-11-24T12:26:55.094Z,59.95
2022-11-24T12:29:57.330Z,59.42
2022-11-24T12:32:47.892Z,64.70
2022-11-24T12:35:29.890Z,64.88
2022-11-24T12:38:14.893Z,60.65
2022-11-24T12:44:02.170Z,56.53
2022-11-24T12:46:45.358Z,58.92
2022-11-24T12:49:39.385Z,57.67
2022-11-24T12:52:24.727Z,58.40
2022-11-24T12:54:59.455Z,60.45
2022-11-24T12:57:37.646Z,66.25
2022-11-24T13:00:22.994Z,63.60
2022-11-24T13:03:20.624Z,64.90
2022-11-24T13:06:01.086Z,57.63
2022-11-24T13:08:35.118Z,66.43
2022-11-24T13:11:43.152Z,59.88
2022-11-24T13:14:22.075Z,64.35
2022-11-24T13:19:55.835Z,64.88
2022-11-24T13:22:29.965Z,65.63
2022-11-24T13:25:21.835Z,62.40
2022-11-24T13:27:58.074Z,63.58
2022-11-24T13:31:13.251Z,59.92
2022-11-24T13:33:49.238Z,61.65
2022-11-24T13:36:37.522Z,63.25
2022-11-24T13:39:23.894Z,59.92
2022-11-24T13:42:06.113Z,61.55
2022-11-24T13:44:58.835Z,58.38
2022-11-24T13:47:43.492Z,60.03
2022-11-24T13:50:27.055Z,59.88
2022-11-24T13:53:21.113Z,66.97
2022-11-24T13:56:01.956Z,61.95
2022-11-24T13:58:41.440Z,61.67
2022-11-24T14:01:25.521Z,61.53
2022-11-24T14:04:30.621Z,60.67
2022-11-24T14:07:09.995Z,64.20
2022-11-24T14:09:47.237Z,59.70
2022-11-24T14:12:22.310Z,60.75
2022-11-24T14:14:56.782Z,61.25
2022-11-24T14:17:31.903Z,65.40
2022-11-24T14:20:25.664Z,58.00
2022-11-24T14:23:01.422Z,60.30
2022-11-24T14:25:37.464Z,60.55
2022-11-24T14:28:24.089Z,65.18
2022-11-24T14:31:28.403Z,62.03
2022-11-24T14:34:21.684Z,65.90
2022-11-24T14:36:55.523Z,67.72
2022-11-24T14:39:31.988Z,66.43
2022-11-24T14:42:08.911Z,66.10
2022-11-24T14:44:51.049Z,62.60
2022-11-24T14:47:32.220Z,63.78
2022-11-24T14:50:15.473Z,63.53
2022-11-24T14:52:52.751Z,67.28
2022-11-24T14:55:35.792Z,59.47
2022-11-24T14:58:24.484Z,67.25
2022-11-24T15:01:14.047Z,57.53
2022-11-24T15:03:47.116Z,62.28
2022-11-24T15:06:23.157Z,61.13
2022-11-24T15:08:56.152Z,62.10
2022-11-24T15:11:34.119Z,62.67
2022-11-24T15:14:06.893Z,59.13
2022-11-24T15:16:44.083Z,63.95
2022-11-24T15:19:20.265Z,65.30
2022-11-24T15:21:53.491Z,62.85
2022-11-24T15:24:26.012Z,62.10
2022-11-24T15:27:08.263Z,63.42
2022-11-24T15:29:40.940Z,67.55
2022-11-24T15:32:18.637Z,66.53
2022-11-24T15:34:51.466Z,58.72
2022-11-24T15:37:24.768Z,60.53
2022-11-24T15:39:57.436Z,61.00
2022-11-24T15:42:33.178Z,62.25
2022-11-24T15:45:06.176Z,62.78
2022-11-24T15:47:39.383Z,64.82
2022-11-24T15:50:13.221Z,62.28
2022-11-24T15:52:46.574Z,66.30
2022-11-24T15:55:21.916Z,69.35
2022-11-24T15:57:57.695Z,61.95
2022-11-24T16:00:30.246Z,70.95
2022-11-24T16:03:24.065Z,65.20
2022-11-24T16:05:59.583Z,66.70
2022-11-24T16:08:32.671Z,69.93
2022-11-24T16:11:05.276Z,72.80
2022-11-24T16:13:41.113Z,71.15
2022-11-24T16:16:15.785Z,71.18
2022-11-24T16:18:49.076Z,74.65
2022-11-24T16:21:22.034Z,81.30
2022-11-24T16:23:55.164Z,77.70
2022-11-24T16:26:27.768Z,71.60
2022-11-24T16:29:03.703Z,74.68
2022-11-24T16:31:36.669Z,71.47
2022-11-24T16:34:09.853Z,73.97
2022-11-24T16:36:42.537Z,71.95
2022-11-24T16:39:15.573Z,82.40
2022-11-24T16:41:48.254Z,79.53
2022-11-24T16:44:24.099Z,80.10
2022-11-24T16:46:57.458Z,78.95
2022-11-24T16:49:30.493Z,77.82
2022-11-24T16:52:03.341Z,82.82
2022-11-24T16:54:36.283Z,78.05
2022-11-24T16:57:14.582Z,83.13
2022-11-24T16:59:50.571Z,89.00
2022-11-24T17:02:23.281Z,84.40
2022-11-24T17:04:56.615Z,84.95
2022-11-24T17:07:29.152Z,86.93
2022-11-24T17:10:02.212Z,84.25
2022-11-24T17:12:34.656Z,92.57
2022-11-24T17:15:45.302Z,88.55
2022-11-24T17:21:03.209Z,84.78
2022-11-24T17:23:38.720Z,88.38
2022-11-24T17:26:15.000Z,100.43
2022-11-24T17:28:47.998Z,91.85
2022-11-24T17:31:25.771Z,95.20
2022-11-24T17:33:59.810Z,93.78
2022-11-24T17:36:35.777Z,95.40
2022-11-24T17:39:29.023Z,100.18
2022-11-24T17:42:01.527Z,92.50
2022-11-24T17:44:33.618Z,94.10
2022-11-24T17:47:09.020Z,96.43
2022-11-24T17:49:40.445Z,96.45
2022-11-24T17:52:14.261Z,90.43
2022-11-24T17:54:57.074Z,92.38
2022-11-24T17:57:29.519Z,89.88
2022-11-24T18:00:01.497Z,95.45
2022-11-24T18:02:36.134Z,87.55
2022-11-24T18:05:08.377Z,83.47
2022-11-24T18:07:40.444Z,91.38
2022-11-24T18:10:15.220Z,86.10
2022-11-24T18:12:50.218Z,91.47
2022-11-24T18:15:21.873Z,83.85
2022-11-24T18:17:58.253Z,87.63
2022-11-24T18:20:30.459Z,84.85
2022-11-24T18:23:06.137Z,88.03
2022-11-24T18:25:39.973Z,84.32
2022-11-24T18:28:12.653Z,83.10
2022-11-24T18:30:46.474Z,92.50
2022-11-24T18:33:41.773Z,88.35
2022-11-24T18:36:16.454Z,92.68
2022-11-24T18:38:49.114Z,81.20
2022-11-24T18:41:21.356Z,89.45
2022-11-24T18:43:53.616Z,90.88
2022-11-24T18:46:25.443Z,87.72
2022-11-24T18:49:00.315Z,90.88
2022-11-24T18:51:32.634Z,93.88
2022-11-24T18:54:05.783Z,90.72
2022-11-24T18:56:38.256Z,90.07
2022-11-24T18:59:10.915Z,91.53
2022-11-24T19:01:43.767Z,89.55
2022-11-24T19:04:18.995Z,85.47
2022-11-24T19:06:51.313Z,88.28
2022-11-24T19:09:25.838Z,97.45
2022-11-24T19:11:58.253Z,101.32
2022-11-24T19:14:30.913Z,91.35
2022-11-24T19:17:04.820Z,94.00
2022-11-24T19:19:40.145Z,96.78
2022-11-24T19:22:13.647Z,90.43
2022-11-24T19:24:47.088Z,91.18
2022-11-24T19:27:21.557Z,96.18
2022-11-24T19:29:55.468Z,96.72
2022-11-24T19:32:27.713Z,98.85
2022-11-24T19:35:03.113Z,97.88
2022-11-24T19:37:35.272Z,103.00
2022-11-24T19:40:09.812Z,103.50
2022-11-24T19:42:42.059Z,108.65
2022-11-24T19:45:15.163Z,100.95
2022-11-24T19:47:47.973Z,105.38
2022-11-24T19:50:23.659Z,103.53
2022-11-24T19:52:55.332Z,105.60
2022-11-24T19:55:31.192Z,95.38
2022-11-24T19:58:03.280Z,101.15
2022-11-24T20:00:35.973Z,96.13
2022-11-24T20:03:08.233Z,104.22
2022-11-24T20:05:43.553Z,102.68
2022-11-24T20:08:15.613Z,104.90
2022-11-24T20:10:48.212Z,113.60
2022-11-24T20:13:20.172Z,107.15
2022-11-24T20:15:52.754Z,119.35
2022-11-24T20:18:25.713Z,108.78
2022-11-24T20:21:05.413Z,108.65
2022-11-24T20:23:37.886Z,105.22
2022-11-24T20:26:12.925Z,114.82
2022-11-24T20:28:45.766Z,118.80
2022-11-24T20:31:22.770Z,112.78
2022-11-24T20:33:56.178Z,118.95
2022-11-24T20:36:31.997Z,114.72
2022-11-24T20:39:05.208Z,113.10
2022-11-24T20:41:39.465Z,119.40
2022-11-24T20:44:13.820Z,122.28
2022-11-24T20:46:48.643Z,115.53
2022-11-24T20:49:23.456Z,112.00
2022-11-24T20:51:58.276Z,120.35
2022-11-24T20:54:29.758Z,115.88
2022-11-24T20:57:01.633Z,106.15
2022-11-24T20:59:32.807Z,119.28
2022-11-24T21:02:06.857Z,120.15
2022-11-24T21:04:38.351Z,122.63
2022-11-24T21:07:14.985Z,118.70
2022-11-24T21:09:46.304Z,126.43
2022-11-24T21:12:18.109Z,121.43
2022-11-24T21:14:49.352Z,117.05
2022-11-24T21:17:23.270Z,119.85
2022-11-24T21:20:00.969Z,112.15
2022-11-24T21:22:35.885Z,106.18
2022-11-24T21:25:07.597Z,107.35
2022-11-24T21:27:40.414Z,107.88
2022-11-24T21:30:13.247Z,108.35
2022-11-24T21:32:45.294Z,105.80
2022-11-24T21:35:16.816Z,102.82
2022-11-24T21:37:51.164Z,105.82
2022-11-24T21:40:22.716Z,101.25
2022-11-24T21:42:54.383Z,104.20
2022-11-24T21:45:25.770Z,110.43
2022-11-24T21:47:57.813Z,114.18
2022-11-24T21:50:29.286Z,111.72
2022-11-24T21:53:04.551Z,106.05
2022-11-24T21:55:36.268Z,113.85
2022-11-24T21:58:09.487Z,116.25
2022-11-24T22:00:40.976Z,106.55
2022-11-24T22:03:13.115Z,113.18
2022-11-24T22:05:47.373Z,108.28
2022-11-24T22:08:22.051Z,113.78
2022-11-24T22:10:53.845Z,109.65
2022-11-24T22:13:25.663Z,112.22
2022-11-24T22:16:05.723Z,111.15
2022-11-24T22:18:39.338Z,97.22
2022-11-24T22:21:14.064Z,93.82
2022-11-24T22:23:49.604Z,97.15
2022-11-24T22:26:24.489Z,88.32
2022-11-24T22:28:58.004Z,99.20
2022-11-24T22:31:34.507Z,88.75
2022-11-24T22:34:06.602Z,89.75
2022-11-24T22:36:38.937Z,80.95
2022-11-24T22:39:15.673Z,87.72
2022-11-24T22:41:47.528Z,78.18
2022-11-24T22:44:19.223Z,86.70
2022-11-24T22:46:50.804Z,91.00
2022-11-24T22:49:24.109Z,89.90
2022-11-24T22:51:55.728Z,80.53
2022-11-24T22:54:30.255Z,77.68
2022-11-24T22:57:01.744Z,78.38
2022-11-24T22:59:33.689Z,77.65
2022-11-24T23:02:05.118Z,74.82
2022-11-24T23:04:37.179Z,76.05
2022-11-24T23:07:10.117Z,87.35
2022-11-24T23:09:44.344Z,89.75
2022-11-24T23:12:15.566Z,102.28
2022-11-24T23:14:47.332Z,91.20
2022-11-24T23:17:18.682Z,93.03
2022-11-24T23:19:50.653Z,86.05
2022-11-24T23:22:21.926Z,84.28
2022-11-24T23:24:59.192Z,89.95
2022-11-24T23:27:30.435Z,80.50
2022-11-24T23:30:02.393Z,88.10
2022-11-24T23:32:33.836Z,81.97
2022-11-24T23:35:10.911Z,78.97
2022-11-24T23:38:06.391Z,78.80
2022-11-24T23:40:39.274Z,72.95
2022-11-24T23:43:10.478Z,77.32
2022-11-24T23:45:44.381Z,65.85
2022-11-24T23:48:15.725Z,73.38
2022-11-24T23:50:47.749Z,67.45
2022-11-24T23:53:19.126Z,69.03
2022-11-24T23:55:59.262Z,61.53
2022-11-24T23:58:34.467Z,69.65
